SAVT/REL METAR and TAF weather

Enter ICAO airport designator
Station Type Date Time Source
SAVT METAR 2019/09/20 12:23 UTC NOAA

SAVT 201223Z 25017G30KT CAVOK 07/M04 Q1010


Station Type Date Time Source
SAVT Decoded METAR 2019/09/20 12:23 UTC NOAA

Trelew Aerodrome, Argentina (SAVT) 43-12S 065-16W 43M
Sep 20, 2019 - 08:23 AM EDT / 2019.09.20 1223 UTC
Wind: from the WSW (250 degrees) at 20 MPH (17 KT) gusting to 35 MPH (30 KT):0
Visibility: greater than 7 mile(s):0
Temperature: 44 F (7 C)
Dew Point: 24 F (-4 C)
Relative Humidity: 45%
Pressure (altimeter): 29.83 in. Hg (1010 hPa)
ob: SAVT 201223Z 25017G30KT CAVOK 07/M04 Q1010
cycle: 12

Station Type Date Time Source
SAVT TAF 2019/04/29 08:53 UTC NOAA

TAF
AMD SAVT 290800Z 2908/3006 27025G40KT 9999 SCT020 BKN035 TX16/2919Z TN07/3006Z
TEMPO 2911/2914 7000 -SHRA OVC020 SCT030
BECMG 3002/3004 25015KT

Example: see airport list